KBEA

Beeville Municipal Airport

Beeville, Texas, USA
METAR KBEA 200055Z AUTO 00000KT 2 1/2SM BR OVC003 10/10 A3009 RMK AO2 T00950095
Observed Flight Rules
Jan-20 @ 00:55 UTC (29 minutes ago) Instrument Flight Rules
Wind Visibility Clouds Conditions
Calm 2 1/2 miles
  • Overcast at 300' AGL
  • Mist
Temperatures Readings
Current 10°C / 50°F
Dewpoint 10°C / 50°F
Humidity 100%
Altimeter 30.09" Hg
Pressure 1019 hPa
Elevation 82
METAR KBEA 200055Z AUTO 00000KT 2 1/2SM BR OVC003 10/10 A3009 RMK AO2 T00950095
Observed Flight Rules
Jan-20 @ 00:55 UTC
(29 minutes ago)
LIFR
Wind Visibility
Calm 2 1/2 miles
Clouds
  • Overcast at 300' AGL
Conditions
  • Mist
Temperature Dewpoint
10°C / 50°F 10°C / 50°F
Humidity Altimeter Pressure
100% 30.09" Hg 1019 hPa